createdAt,value
2023-05-09T00:01:46.657Z,10.88
2023-05-09T00:04:13.973Z,19.33
2023-05-09T00:06:41.054Z,19.50
2023-05-09T00:09:08.164Z,52.42
2023-05-09T00:11:35.297Z,32.17
2023-05-09T00:14:03.318Z,42.65
2023-05-09T00:16:33.131Z,40.30
2023-05-09T00:19:00.717Z,52.70
2023-05-09T00:21:28.494Z,44.35
2023-05-09T00:23:55.782Z,20.33
2023-05-09T00:26:23.549Z,29.05
2023-05-09T00:28:50.722Z,39.17
2023-05-09T00:31:17.692Z,25.70
2023-05-09T00:33:44.869Z,33.00
2023-05-09T00:36:11.970Z,37.83
2023-05-09T00:38:39.122Z,26.17
2023-05-09T00:41:06.395Z,29.40
2023-05-09T00:43:33.478Z,21.95
2023-05-09T00:46:01.345Z,22.05
2023-05-09T00:48:28.661Z,21.23
2023-05-09T00:50:56.533Z,40.22
2023-05-09T00:53:24.826Z,15.77
2023-05-09T00:55:53.626Z,18.83
2023-05-09T00:58:21.334Z,20.23
2023-05-09T01:00:48.658Z,20.33
2023-05-09T01:03:15.999Z,22.80
2023-05-09T01:05:58.642Z,27.10
2023-05-09T01:08:34.750Z,17.13
2023-05-09T01:11:17.781Z,14.93
2023-05-09T01:13:54.376Z,21.90
2023-05-09T01:16:37.058Z,18.08
2023-05-09T01:19:35.647Z,20.98
2023-05-09T01:22:09.031Z,15.75
2023-05-09T01:24:57.613Z,13.30
2023-05-09T01:27:57.689Z,14.00
2023-05-09T01:30:27.370Z,14.65
2023-05-09T01:33:01.045Z,14.43
2023-05-09T01:35:32.129Z,15.43
2023-05-09T01:37:59.843Z,12.55
2023-05-09T01:40:31.707Z,13.70
2023-05-09T01:43:05.885Z,28.27
2023-05-09T01:45:34.394Z,12.57
2023-05-09T01:48:02.812Z,17.52
2023-05-09T01:50:31.113Z,15.20
2023-05-09T01:53:01.552Z,19.88
2023-05-09T01:55:32.885Z,12.15
2023-05-09T01:58:01.298Z,20.10
2023-05-09T02:00:29.030Z,14.80
2023-05-09T02:02:57.936Z,18.48
2023-05-09T02:05:30.424Z,16.00
2023-05-09T02:08:01.313Z,16.48
2023-05-09T02:10:29.189Z,26.15
2023-05-09T02:12:57.611Z,16.98
2023-05-09T02:15:24.875Z,18.05
2023-05-09T02:17:52.358Z,20.60
2023-05-09T02:20:19.774Z,34.65
2023-05-09T02:22:47.900Z,24.45
2023-05-09T02:25:15.866Z,32.85
2023-05-09T02:27:47.225Z,18.92
2023-05-09T02:30:21.142Z,31.52
2023-05-09T02:32:50.485Z,26.33
2023-05-09T02:35:20.609Z,16.23
2023-05-09T02:37:47.883Z,26.60
2023-05-09T02:40:15.134Z,25.85
2023-05-09T02:42:42.144Z,19.60
2023-05-09T02:45:10.880Z,26.17
2023-05-09T02:47:39.109Z,22.77
2023-05-09T02:50:07.037Z,21.33
2023-05-09T02:52:36.395Z,14.45
2023-05-09T02:55:04.460Z,23.60
2023-05-09T02:57:34.157Z,25.80
2023-05-09T03:00:01.383Z,17.95
2023-05-09T03:02:33.535Z,20.48
2023-05-09T03:05:03.284Z,25.35
2023-05-09T03:07:32.295Z,22.35
2023-05-09T03:09:59.469Z,27.23
2023-05-09T03:12:27.079Z,23.83
2023-05-09T03:14:55.966Z,20.48
2023-05-09T03:17:23.416Z,20.80
2023-05-09T03:19:50.587Z,22.92
2023-05-09T03:22:17.751Z,22.80
2023-05-09T03:24:53.180Z,22.38
2023-05-09T03:27:20.260Z,28.13
2023-05-09T03:29:48.843Z,26.10
2023-05-09T03:32:17.562Z,31.45
2023-05-09T03:34:44.524Z,27.00
2023-05-09T03:37:11.576Z,23.35
2023-05-09T03:39:40.974Z,22.88
2023-05-09T03:42:08.184Z,20.80
2023-05-09T03:44:35.498Z,25.73
2023-05-09T03:47:02.603Z,28.27
2023-05-09T03:49:36.453Z,23.38
2023-05-09T03:52:04.397Z,29.30
2023-05-09T03:54:32.627Z,28.23
2023-05-09T03:57:00.017Z,30.85
2023-05-09T03:59:27.421Z,24.42
2023-05-09T04:01:55.082Z,22.05
2023-05-09T04:04:25.777Z,28.88
2023-05-09T04:06:53.170Z,26.08
2023-05-09T04:09:20.505Z,33.58
2023-05-09T04:11:48.238Z,25.38
2023-05-09T04:14:16.210Z,21.67
2023-05-09T04:16:43.569Z,33.72
2023-05-09T04:19:10.889Z,31.92
2023-05-09T04:21:38.386Z,28.00
2023-05-09T04:24:06.483Z,27.77
2023-05-09T04:26:39.435Z,22.05
2023-05-09T04:31:36.709Z,26.17
2023-05-09T04:34:05.007Z,17.80
2023-05-09T04:36:34.817Z,19.40
2023-05-09T04:39:02.502Z,26.80
2023-05-09T04:41:31.140Z,24.27
2023-05-09T04:43:58.236Z,21.70
2023-05-09T04:46:27.222Z,21.90
2023-05-09T04:48:54.860Z,21.40
2023-05-09T04:51:22.103Z,20.05
2023-05-09T04:53:49.148Z,17.05
2023-05-09T04:56:19.278Z,21.75
2023-05-09T04:58:48.333Z,19.08
2023-05-09T05:01:16.858Z,14.90
2023-05-09T05:03:44.731Z,21.77
2023-05-09T05:06:11.967Z,15.23
2023-05-09T05:08:41.088Z,19.17
2023-05-09T05:11:09.627Z,17.02
2023-05-09T05:13:36.708Z,18.17
2023-05-09T05:16:04.023Z,27.30
2023-05-09T05:18:31.092Z,24.00
2023-05-09T05:20:58.840Z,23.50
2023-05-09T05:23:26.287Z,20.45
2023-05-09T05:25:55.014Z,21.10
2023-05-09T05:28:23.679Z,17.35
2023-05-09T05:30:51.309Z,14.23
2023-05-09T05:33:18.483Z,15.15
2023-05-09T05:35:45.837Z,14.05
2023-05-09T05:38:13.057Z,12.57
2023-05-09T05:40:40.142Z,13.40
2023-05-09T05:43:08.103Z,15.75
2023-05-09T05:45:37.831Z,12.05
2023-05-09T05:50:36.438Z,21.80
2023-05-09T05:53:04.369Z,11.50
2023-05-09T05:55:31.602Z,12.10
2023-05-09T05:57:58.718Z,11.75
2023-05-09T06:00:26.075Z,9.30
2023-05-09T06:03:00.562Z,6.88
2023-05-09T06:05:50.021Z,8.90
2023-05-09T06:08:18.292Z,10.38
2023-05-09T06:10:45.422Z,11.77
2023-05-09T06:13:12.601Z,5.53
2023-05-09T06:15:44.606Z,4.22
2023-05-09T06:18:11.825Z,6.35
2023-05-09T06:20:38.987Z,6.18
2023-05-09T06:23:06.054Z,5.88
2023-05-09T06:25:33.167Z,3.50
2023-05-09T06:28:00.338Z,2.75
2023-05-09T06:30:27.430Z,6.35
2023-05-09T06:32:55.697Z,5.97
2023-05-09T06:35:23.112Z,7.13
2023-05-09T06:37:50.574Z,10.68
2023-05-09T06:40:18.012Z,7.10
2023-05-09T06:42:45.380Z,4.22
2023-05-09T06:45:12.942Z,5.30
2023-05-09T06:47:40.226Z,5.20
2023-05-09T06:50:08.284Z,4.13
2023-05-09T06:52:36.090Z,4.32
2023-05-09T06:55:03.851Z,6.38
2023-05-09T06:57:33.297Z,5.32
2023-05-09T07:00:00.889Z,6.43
2023-05-09T07:02:28.440Z,7.30
2023-05-09T07:04:55.469Z,6.18
2023-05-09T07:07:22.601Z,7.75
2023-05-09T07:09:52.959Z,5.25
2023-05-09T07:12:22.646Z,6.85
2023-05-09T07:14:49.635Z,5.82
2023-05-09T07:17:23.675Z,6.57
2023-05-09T07:19:52.016Z,5.60
2023-05-09T07:22:19.490Z,7.68
2023-05-09T07:24:47.276Z,7.82
2023-05-09T07:27:14.510Z,4.45
2023-05-09T07:29:41.579Z,11.50
2023-05-09T07:32:08.878Z,6.03
2023-05-09T07:34:36.379Z,10.02
2023-05-09T07:37:03.637Z,5.85
2023-05-09T07:39:30.667Z,5.97
2023-05-09T07:41:57.613Z,7.32
2023-05-09T07:44:24.816Z,4.28
2023-05-09T07:46:51.873Z,4.20
2023-05-09T07:49:19.058Z,5.93
2023-05-09T07:51:46.067Z,5.97
2023-05-09T07:54:13.698Z,3.72
2023-05-09T07:56:40.885Z,4.65
2023-05-09T07:59:07.866Z,4.15
2023-05-09T08:01:35.241Z,3.65
2023-05-09T08:04:02.361Z,7.18
2023-05-09T08:06:29.590Z,10.60
2023-05-09T08:08:56.610Z,11.98
2023-05-09T08:11:23.893Z,5.53
2023-05-09T08:13:51.011Z,5.72
2023-05-09T08:16:18.245Z,10.27
2023-05-09T08:18:46.075Z,7.13
2023-05-09T08:21:13.646Z,10.88
2023-05-09T08:23:41.466Z,5.90
2023-05-09T08:26:08.734Z,4.15
2023-05-09T08:28:35.865Z,6.10
2023-05-09T08:31:02.920Z,7.90
2023-05-09T08:33:30.061Z,4.25
2023-05-09T08:35:57.178Z,16.00
2023-05-09T08:38:24.916Z,9.48
2023-05-09T08:40:52.086Z,4.10
2023-05-09T08:43:20.513Z,3.58
2023-05-09T08:45:58.605Z,3.92
2023-05-09T08:48:27.114Z,5.57
2023-05-09T08:50:56.242Z,6.15
2023-05-09T08:53:23.716Z,5.80
2023-05-09T08:55:52.294Z,6.22
2023-05-09T08:58:20.547Z,3.90
2023-05-09T09:00:48.038Z,7.68
2023-05-09T09:03:15.746Z,4.00
2023-05-09T09:05:44.266Z,3.42
2023-05-09T09:08:11.937Z,5.35
2023-05-09T09:10:42.853Z,5.45
2023-05-09T09:13:12.786Z,6.25
2023-05-09T09:15:43.690Z,4.32
2023-05-09T09:18:16.698Z,9.20
2023-05-09T09:20:50.044Z,5.63
2023-05-09T09:23:20.072Z,3.25
2023-05-09T09:25:48.347Z,3.88
2023-05-09T09:28:15.854Z,5.43
2023-05-09T09:30:48.569Z,4.15
2023-05-09T09:33:22.919Z,2.72
2023-05-09T09:35:51.700Z,4.07
2023-05-09T09:38:20.267Z,12.25
2023-05-09T09:40:57.564Z,5.65
2023-05-09T09:43:29.337Z,4.47
2023-05-09T09:45:57.923Z,3.88
2023-05-09T09:48:26.740Z,4.10
2023-05-09T09:50:57.009Z,2.88
2023-05-09T09:55:54.023Z,3.63
2023-05-09T09:58:25.317Z,4.88
2023-05-09T10:01:09.359Z,4.03
2023-05-09T10:03:43.060Z,2.80
2023-05-09T10:06:15.124Z,3.20
2023-05-09T10:08:46.880Z,5.93
2023-05-09T10:11:15.558Z,8.35
2023-05-09T10:13:44.716Z,5.88
2023-05-09T10:16:14.041Z,5.30
2023-05-09T10:18:43.363Z,4.97
2023-05-09T10:21:14.616Z,3.77
2023-05-09T10:23:46.603Z,7.50
2023-05-09T10:26:31.740Z,4.47
2023-05-09T10:29:00.826Z,11.80
2023-05-09T10:31:32.651Z,5.55
2023-05-09T10:34:05.208Z,4.95
2023-05-09T10:36:33.235Z,6.45
2023-05-09T10:39:01.350Z,3.70
2023-05-09T10:41:29.300Z,4.03
2023-05-09T10:43:58.404Z,5.45
2023-05-09T10:46:27.525Z,4.63
2023-05-09T10:49:04.899Z,6.15
2023-05-09T10:51:32.715Z,5.05
2023-05-09T10:53:59.971Z,4.50
2023-05-09T10:56:32.035Z,4.85
2023-05-09T10:59:00.128Z,2.88
2023-05-09T11:01:31.696Z,3.80
2023-05-09T11:04:00.357Z,2.15
2023-05-09T11:06:45.336Z,4.85
2023-05-09T11:09:35.107Z,5.40
2023-05-09T11:12:05.401Z,4.35
2023-05-09T11:14:44.852Z,3.28
2023-05-09T11:17:13.901Z,3.40
2023-05-09T11:19:47.100Z,4.70
2023-05-09T11:22:19.830Z,3.10
2023-05-09T11:24:51.604Z,3.83
2023-05-09T11:27:26.895Z,5.13
2023-05-09T11:29:54.797Z,3.58
2023-05-09T11:32:32.622Z,3.72
2023-05-09T11:35:12.305Z,8.85
2023-05-09T11:37:51.637Z,6.28
2023-05-09T11:40:20.635Z,4.10
2023-05-09T11:42:58.037Z,7.57
2023-05-09T11:45:28.824Z,6.13
2023-05-09T11:47:57.305Z,7.63
2023-05-09T11:50:25.029Z,8.75
2023-05-09T11:52:52.367Z,3.58
2023-05-09T11:55:25.744Z,5.32
2023-05-09T11:57:54.815Z,5.60
2023-05-09T12:00:24.223Z,4.75
2023-05-09T12:02:53.456Z,4.80
2023-05-09T12:05:23.170Z,3.25
2023-05-09T12:07:52.686Z,4.22
2023-05-09T12:10:22.103Z,4.93
2023-05-09T12:12:51.549Z,3.60
2023-05-09T12:15:19.916Z,5.22
2023-05-09T12:17:50.495Z,3.17
2023-05-09T12:20:19.077Z,5.47
2023-05-09T12:22:53.444Z,5.35
2023-05-09T12:25:20.631Z,7.55
2023-05-09T12:27:47.943Z,3.42
2023-05-09T12:30:16.238Z,2.90
2023-05-09T12:32:43.938Z,3.03
2023-05-09T12:35:11.415Z,5.63
2023-05-09T12:37:39.379Z,6.07
2023-05-09T12:40:12.610Z,3.88
2023-05-09T12:42:44.673Z,4.68
2023-05-09T12:45:12.078Z,3.97
2023-05-09T12:47:39.763Z,5.10
2023-05-09T12:50:08.304Z,3.33
2023-05-09T12:52:50.738Z,5.70
2023-05-09T12:55:21.783Z,3.55
2023-05-09T12:58:03.529Z,4.47
2023-05-09T13:00:42.843Z,3.88
2023-05-09T13:03:25.573Z,2.75
2023-05-09T13:06:02.494Z,4.65
2023-05-09T13:08:29.819Z,4.53
2023-05-09T13:11:12.145Z,9.85
2023-05-09T13:13:43.041Z,8.27
2023-05-09T13:16:12.055Z,3.25
2023-05-09T13:18:40.933Z,6.20
2023-05-09T13:21:08.079Z,4.10
2023-05-09T13:23:35.145Z,2.55
2023-05-09T13:26:02.197Z,7.68
2023-05-09T13:28:29.625Z,9.35
2023-05-09T13:30:56.700Z,3.92
2023-05-09T13:33:26.586Z,6.72
2023-05-09T13:35:54.251Z,5.05
2023-05-09T13:38:21.578Z,3.55
2023-05-09T13:40:48.726Z,3.30
2023-05-09T13:43:15.961Z,3.78
2023-05-09T13:45:43.280Z,3.00
2023-05-09T13:48:11.809Z,6.85
2023-05-09T13:50:39.359Z,8.13
2023-05-09T13:53:06.484Z,4.45
2023-05-09T13:55:34.643Z,7.57
2023-05-09T13:58:01.974Z,15.02
2023-05-09T14:00:29.214Z,13.35
2023-05-09T14:02:56.477Z,5.68
2023-05-09T14:05:23.581Z,4.65
2023-05-09T14:07:50.782Z,8.43
2023-05-09T14:10:18.165Z,12.95
2023-05-09T14:12:46.840Z,7.35
2023-05-09T14:15:13.955Z,8.57
2023-05-09T14:17:41.139Z,4.38
2023-05-09T14:20:08.818Z,4.47
2023-05-09T14:22:35.850Z,8.88
2023-05-09T14:25:03.010Z,8.75
2023-05-09T14:27:30.917Z,8.27
2023-05-09T14:29:58.212Z,12.63
2023-05-09T14:32:25.597Z,10.13
2023-05-09T14:34:52.778Z,5.45
2023-05-09T14:37:19.925Z,11.23
2023-05-09T14:39:47.001Z,8.30
2023-05-09T14:42:14.406Z,7.93
2023-05-09T14:44:41.995Z,7.57
2023-05-09T14:47:10.076Z,4.70
2023-05-09T14:49:40.246Z,6.70
2023-05-09T14:52:07.328Z,8.23
2023-05-09T14:54:34.973Z,7.07
2023-05-09T14:57:04.692Z,4.57
2023-05-09T14:59:32.330Z,4.75
2023-05-09T15:01:59.871Z,6.18
2023-05-09T15:04:30.675Z,5.25
2023-05-09T15:06:59.196Z,10.73
2023-05-09T15:09:27.025Z,5.35
2023-05-09T15:11:55.086Z,5.72
2023-05-09T15:14:22.518Z,5.10
2023-05-09T15:16:52.417Z,6.07
2023-05-09T15:19:19.705Z,3.40
2023-05-09T15:21:46.839Z,5.38
2023-05-09T15:24:13.960Z,3.75
2023-05-09T15:26:41.022Z,8.45
2023-05-09T15:29:08.178Z,4.68
2023-05-09T15:31:36.408Z,10.65
2023-05-09T15:34:03.930Z,9.73
2023-05-09T15:36:31.245Z,6.75
2023-05-09T15:38:58.437Z,5.97
2023-05-09T15:41:25.699Z,7.70
2023-05-09T15:43:53.073Z,12.52
2023-05-09T15:46:20.287Z,5.65
2023-05-09T15:48:47.752Z,5.68
2023-05-09T15:51:14.801Z,8.60
2023-05-09T15:53:41.905Z,10.02
2023-05-09T15:56:09.116Z,7.45
2023-05-09T15:58:36.989Z,9.25
2023-05-09T16:01:06.229Z,17.90
2023-05-09T16:03:34.947Z,6.72
2023-05-09T16:06:02.430Z,9.55
2023-05-09T16:08:29.663Z,12.23
2023-05-09T16:10:56.793Z,11.63
2023-05-09T16:13:24.036Z,6.38
2023-05-09T16:15:51.320Z,15.43
2023-05-09T16:18:18.882Z,8.95
2023-05-09T16:20:46.165Z,8.90
2023-05-09T16:23:13.413Z,7.55
2023-05-09T16:25:40.736Z,7.38
2023-05-09T16:28:08.638Z,9.70
2023-05-09T16:30:36.359Z,14.90
2023-05-09T16:33:03.718Z,7.97
2023-05-09T16:35:30.806Z,10.57
2023-05-09T16:37:57.998Z,12.13
2023-05-09T16:40:25.097Z,9.50
2023-05-09T16:42:53.254Z,10.15
2023-05-09T16:45:20.499Z,7.65
2023-05-09T16:47:47.832Z,7.38
2023-05-09T16:50:15.217Z,6.72
2023-05-09T16:52:42.397Z,6.35
2023-05-09T16:55:09.515Z,9.68
2023-05-09T16:57:36.691Z,11.32
2023-05-09T17:00:07.461Z,9.18
2023-05-09T17:02:36.441Z,15.18
2023-05-09T17:05:04.835Z,13.15
2023-05-09T17:07:32.408Z,23.27
2023-05-09T17:09:59.806Z,7.35
2023-05-09T17:12:27.796Z,12.90
2023-05-09T17:14:54.915Z,8.27
2023-05-09T17:17:21.914Z,22.63
2023-05-09T17:19:48.936Z,15.55
2023-05-09T17:22:16.157Z,11.93
2023-05-09T17:24:43.768Z,19.08
2023-05-09T17:27:11.668Z,15.52
2023-05-09T17:29:38.806Z,15.15
2023-05-09T17:32:06.970Z,15.18
2023-05-09T17:34:34.104Z,12.15
2023-05-09T17:37:02.524Z,9.88
2023-05-09T17:39:30.594Z,7.60
2023-05-09T17:41:57.663Z,7.60
2023-05-09T17:44:24.908Z,7.00
2023-05-09T17:46:52.038Z,7.90
2023-05-09T17:49:19.182Z,8.15
2023-05-09T17:51:46.447Z,8.52
2023-05-09T17:54:13.523Z,11.13
2023-05-09T17:56:40.939Z,7.18
2023-05-09T17:59:08.275Z,6.75
2023-05-09T18:01:35.746Z,9.40
2023-05-09T18:04:03.184Z,5.90
2023-05-09T18:06:30.239Z,18.50
2023-05-09T18:08:57.256Z,12.35
2023-05-09T18:11:24.764Z,11.98
2023-05-09T18:13:52.078Z,11.52
2023-05-09T18:16:19.253Z,10.05
2023-05-09T18:18:46.468Z,16.52
2023-05-09T18:21:14.068Z,11.82
2023-05-09T18:23:44.540Z,12.07
2023-05-09T18:28:41.456Z,12.98
2023-05-09T18:31:10.257Z,12.63
2023-05-09T18:33:39.137Z,12.30
2023-05-09T18:36:10.203Z,12.25
2023-05-09T18:38:38.844Z,12.48
2023-05-09T18:41:07.241Z,10.73
2023-05-09T18:43:35.926Z,8.23
2023-05-09T18:46:03.722Z,10.45
2023-05-09T18:48:34.142Z,12.15
2023-05-09T18:51:01.369Z,13.48
2023-05-09T18:53:29.102Z,17.77
2023-05-09T18:55:56.982Z,14.77
2023-05-09T18:58:24.886Z,11.63
2023-05-09T19:00:53.083Z,16.00
2023-05-09T19:03:20.982Z,11.75
2023-05-09T19:05:48.196Z,10.95
2023-05-09T19:08:15.268Z,11.88
2023-05-09T19:10:42.711Z,10.82
2023-05-09T19:13:09.881Z,13.98
2023-05-09T19:15:37.560Z,13.00
2023-05-09T19:18:04.966Z,14.05
2023-05-09T19:20:32.067Z,13.23
2023-05-09T19:22:59.515Z,12.73
2023-05-09T19:25:26.888Z,11.65
2023-05-09T19:27:53.960Z,9.85
2023-05-09T19:30:21.241Z,9.40
2023-05-09T19:32:48.458Z,9.40
2023-05-09T19:35:16.145Z,15.82
2023-05-09T19:37:43.216Z,37.83
2023-05-09T19:40:11.454Z,19.85
2023-05-09T19:42:38.545Z,8.60
2023-05-09T19:45:06.025Z,10.88
2023-05-09T19:47:33.245Z,11.05
2023-05-09T19:50:02.169Z,10.70
2023-05-09T19:52:31.897Z,12.77
2023-05-09T19:54:58.981Z,10.25
2023-05-09T19:57:26.001Z,7.85
2023-05-09T19:59:54.653Z,6.50
2023-05-09T20:02:21.736Z,6.30
2023-05-09T20:04:50.095Z,7.75
2023-05-09T20:07:17.913Z,8.40
2023-05-09T20:09:45.056Z,10.27
2023-05-09T20:12:13.254Z,20.58
2023-05-09T20:14:40.487Z,25.10
2023-05-09T20:17:07.667Z,21.75
2023-05-09T20:19:34.878Z,35.63
2023-05-09T20:22:02.450Z,31.10
2023-05-09T20:24:31.521Z,29.55
2023-05-09T20:26:58.797Z,38.72
2023-05-09T20:29:26.272Z,32.17
2023-05-09T20:31:53.454Z,28.52
2023-05-09T20:34:22.280Z,23.00
2023-05-09T20:36:53.381Z,22.60
2023-05-09T20:39:21.246Z,43.40
2023-05-09T20:41:49.501Z,31.48
2023-05-09T20:44:18.018Z,40.08
2023-05-09T20:46:45.689Z,36.00
2023-05-09T20:49:12.861Z,33.72
2023-05-09T20:51:40.177Z,25.70
2023-05-09T20:54:07.369Z,31.25
2023-05-09T20:56:35.626Z,17.65
2023-05-09T20:59:04.287Z,17.27
2023-05-09T21:01:32.655Z,19.48
2023-05-09T21:03:59.879Z,17.55
2023-05-09T21:06:26.999Z,14.45
2023-05-09T21:08:54.104Z,22.05
2023-05-09T21:11:22.102Z,18.73
2023-05-09T21:13:49.215Z,23.60
2023-05-09T21:16:16.478Z,23.02
2023-05-09T21:18:43.690Z,18.85
2023-05-09T21:21:11.450Z,19.33
2023-05-09T21:23:38.433Z,22.13
2023-05-09T21:26:06.015Z,17.40
2023-05-09T21:28:33.086Z,22.90
2023-05-09T21:31:01.791Z,22.15
2023-05-09T21:33:33.002Z,17.10
2023-05-09T21:36:03.353Z,19.65
2023-05-09T21:38:38.170Z,21.75
2023-05-09T21:41:08.105Z,19.90
2023-05-09T21:43:36.760Z,23.55
2023-05-09T21:46:06.551Z,22.13
2023-05-09T21:48:33.941Z,20.42
2023-05-09T21:51:02.755Z,19.30
2023-05-09T21:53:30.017Z,19.50
2023-05-09T21:55:57.087Z,19.05
2023-05-09T21:58:24.042Z,20.88
2023-05-09T22:00:51.284Z,20.23
2023-05-09T22:03:18.434Z,17.67
2023-05-09T22:05:45.595Z,18.92
2023-05-09T22:08:12.722Z,20.08
2023-05-09T22:10:39.763Z,15.88
2023-05-09T22:13:06.818Z,19.30
2023-05-09T22:15:34.064Z,15.55
2023-05-09T22:18:01.331Z,24.25
2023-05-09T22:20:28.400Z,25.75
2023-05-09T22:22:55.443Z,23.67
2023-05-09T22:25:22.487Z,23.92
2023-05-09T22:27:49.534Z,27.17
2023-05-09T22:30:16.903Z,30.17
2023-05-09T22:32:44.289Z,28.63
2023-05-09T22:35:11.451Z,29.15
2023-05-09T22:37:38.710Z,31.05
2023-05-09T22:40:06.640Z,26.05
2023-05-09T22:42:34.893Z,22.52
2023-05-09T22:45:02.305Z,27.58
2023-05-09T22:47:32.904Z,19.65
2023-05-09T22:50:00.006Z,19.38
2023-05-09T22:52:27.214Z,27.27
2023-05-09T22:54:54.279Z,22.92
2023-05-09T22:57:23.850Z,151.02
2023-05-09T22:59:51.325Z,118.18
2023-05-09T23:02:18.392Z,51.53
2023-05-09T23:04:45.539Z,34.75
2023-05-09T23:07:13.182Z,32.03
2023-05-09T23:09:41.047Z,29.48
2023-05-09T23:12:10.464Z,24.55
2023-05-09T23:14:37.502Z,21.67
2023-05-09T23:17:04.481Z,25.05
2023-05-09T23:19:31.583Z,22.15
2023-05-09T23:21:58.829Z,29.95
2023-05-09T23:24:25.996Z,19.92
2023-05-09T23:26:54.151Z,24.38
2023-05-09T23:29:21.257Z,24.45
2023-05-09T23:31:48.419Z,20.15
2023-05-09T23:34:15.455Z,22.40
2023-05-09T23:36:42.446Z,25.27
2023-05-09T23:39:09.584Z,22.27
2023-05-09T23:41:36.629Z,19.83
2023-05-09T23:44:04.263Z,16.65
2023-05-09T23:46:31.397Z,23.88
2023-05-09T23:48:58.437Z,17.92
2023-05-09T23:51:25.517Z,18.67
2023-05-09T23:53:52.758Z,33.95
2023-05-09T23:56:19.778Z,20.52
2023-05-09T23:58:46.734Z,25.45
